Romney, WV (26757)

5:41 PM EST on February 12, 2016 (GMT -0500)
Longview Farms | | Change Station
CLOSE
Current Station
Personal Weather Station
Location: Augusta, WV
Elevation: 1332 ft
Nearby Weather Stations
Active Advisory: Wind Chill Advisory

Elev 1332 ft 39.38 °N, 78.54 °W | Updated 1 second ago

Overcast
Overcast
23.2 °F
Feels Like 23 °F
N
1.1
Wind Variable Wind from West
Gusts 2.5 mph

Today
High -- | Low -- °F
--% Chance of Precip.
Yesterday
High -- | Low -- °F
Precip. -- in
Pressure 30.01 in
Visibility 1.2 miles
Clouds Overcast 400 ft
Windchill 23 °F
Dew Point 14 °F
Humidity 68%
Rainfall 0.00 in
Snow Depth Not available.
7:11 AM 5:47 PM
Waxing Crescent, 24% visible
METAR KCBE 122222Z AUTO 00000KT 1 1/4SM OVC004 M03/M05 A3001 RMK AO1
Pressure 30.01 in
Visibility 1.2 miles
Clouds Overcast 400 ft
Windchill 23 °F
Dew Point 14 °F
Humidity 68%
Rainfall 0.00 in
Snow Depth Not available.
7:11 AM 5:47 PM
Waxing Crescent, 24% visible
METAR KCBE 122222Z AUTO 00000KT 1 1/4SM OVC004 M03/M05 A3001 RMK AO1

10-Day Weather Forecast

Almanac

Astronomy

Feb. 12, 2016 Rise Set
Actual Time
Civil Twilight
Nautical Twilight
Astronomical Twilight
Moon
Length of Visible Light
Length of Day
Tomorrow will be .
, % of the Moon is Illuminated

Today's Extremes

State Highs State Lows

Community

WunderPhotos

Upload Photos

1,892,424 photos uploaded!

WunderBlog® & News

Nearby

Air Quality

  Air Quality AQ Index Pollutant
Not available.

Snow Depth

Station Depth Elevation

Earthquake Activity

City Distance Mag. Time & Date
Minimum magnitude displayed is 2.5.

Coastal Water Temperatures

Place Temperature

Stations

Nearby Weather Stations

Station Location Temp. Windchill Dew Point Humidity Wind Precip. Elev Updated Type
                   

Watches & Warnings

Wind Chill Advisory
Issued: 1:12 PM EST Feb. 12, 2016 – National Weather Service

... Wind Chill Advisory in effect from midnight tonight to 9 am
EST Sunday...

The National Weather Service in Baltimore MD/Washington has
issued a Wind Chill Advisory... which is in effect from midnight
tonight to 9 am EST Sunday.

* Wind chills... 15 to 25 degrees below zero.

* Winds... northwest 20 to 30 mph with gusts around 50 mph.

* Temperatures... single digits tonight through Saturday.
Temperatures will drop to between zero and five degrees below
zero Saturday night into Sunday.

* Timing... late tonight through Sunday morning.

* Impacts... frost bite and hypothermia are possible if
precautions are not taken.

Precautionary/preparedness actions...

A Wind Chill Advisory means that very cold air and strong winds
will combine to generate low wind chills. This will result in
frost bite and lead to hypothermia if precautions are not taken.
If you must venture outdoors... make sure you wear a hat and
gloves.